createdAt,value
2023-05-02T00:00:49.759Z,78.10
2023-05-02T00:03:17.219Z,77.86
2023-05-02T00:05:44.318Z,77.19
2023-05-02T00:08:11.941Z,77.58
2023-05-02T00:10:38.512Z,77.77
2023-05-02T00:13:05.030Z,77.43
2023-05-02T00:15:31.506Z,77.66
2023-05-02T00:17:58.039Z,77.10
2023-05-02T00:20:24.648Z,76.90
2023-05-02T00:22:51.105Z,77.28
2023-05-02T00:25:17.601Z,77.19
2023-05-02T00:27:46.525Z,76.96
2023-05-02T00:30:13.964Z,76.87
2023-05-02T00:32:40.702Z,76.81
2023-05-02T00:35:07.907Z,77.29
2023-05-02T00:37:34.308Z,77.10
2023-05-02T00:40:01.022Z,77.34
2023-05-02T00:42:31.365Z,77.31
2023-05-02T00:44:57.857Z,77.37
2023-05-02T00:47:24.429Z,77.02
2023-05-02T00:49:50.996Z,77.04
2023-05-02T00:52:17.509Z,76.85
2023-05-02T00:54:43.989Z,76.18
2023-05-02T00:57:10.546Z,77.67
2023-05-02T00:59:37.436Z,78.42
2023-05-02T01:02:32.779Z,78.83
2023-05-02T01:05:17.252Z,78.28
2023-05-02T01:08:10.403Z,78.17
2023-05-02T01:11:06.829Z,78.56
2023-05-02T01:13:34.994Z,77.88
2023-05-02T01:16:03.325Z,77.91
2023-05-02T01:18:33.583Z,77.38
2023-05-02T01:21:03.068Z,78.78
2023-05-02T01:23:47.933Z,79.44
2023-05-02T01:26:29.929Z,79.78
2023-05-02T01:29:01.441Z,80.06
2023-05-02T01:31:33.233Z,79.49
2023-05-02T01:34:01.286Z,79.30
2023-05-02T01:36:30.425Z,79.21
2023-05-02T01:38:58.085Z,78.53
2023-05-02T01:41:31.271Z,78.36
2023-05-02T01:44:00.421Z,77.73
2023-05-02T01:46:29.409Z,77.30
2023-05-02T01:48:59.219Z,77.82
2023-05-02T01:51:31.882Z,78.35
2023-05-02T01:54:05.896Z,78.85
2023-05-02T01:56:35.737Z,78.72
2023-05-02T01:59:06.456Z,78.96
2023-05-02T02:01:35.512Z,80.05
2023-05-02T02:04:03.896Z,77.93
2023-05-02T02:06:31.590Z,78.68
2023-05-02T02:08:59.649Z,79.03
2023-05-02T02:11:40.410Z,79.50
2023-05-02T02:14:12.658Z,79.70
2023-05-02T02:16:42.322Z,80.03
2023-05-02T02:19:15.617Z,81.05
2023-05-02T02:21:47.105Z,81.60
2023-05-02T02:24:14.307Z,81.97
2023-05-02T02:26:41.559Z,81.91
2023-05-02T02:29:08.740Z,82.33
2023-05-02T02:31:36.436Z,83.00
2023-05-02T02:34:03.621Z,83.01
2023-05-02T02:36:44.807Z,81.71
2023-05-02T02:39:45.712Z,80.70
2023-05-02T02:42:22.883Z,79.96
2023-05-02T02:45:08.533Z,79.88
2023-05-02T02:47:47.828Z,79.59
2023-05-02T02:50:25.115Z,79.74
2023-05-02T02:53:12.311Z,79.07
2023-05-02T02:55:46.717Z,78.29
2023-05-02T02:58:21.926Z,78.61
2023-05-02T03:00:49.724Z,78.77
2023-05-02T03:03:17.681Z,78.93
2023-05-02T03:05:44.800Z,79.45
2023-05-02T03:08:11.999Z,80.04
2023-05-02T03:10:38.648Z,80.37
2023-05-02T03:13:05.108Z,80.10
2023-05-02T03:15:55.171Z,80.70
2023-05-02T03:18:27.764Z,80.55
2023-05-02T03:20:54.747Z,81.28
2023-05-02T03:23:21.575Z,81.24
2023-05-02T03:25:49.038Z,80.75
2023-05-02T03:28:20.820Z,81.35
2023-05-02T03:30:49.254Z,80.89
2023-05-02T03:33:15.729Z,80.94
2023-05-02T03:35:44.171Z,80.64
2023-05-02T03:38:12.272Z,80.87
2023-05-02T03:40:38.720Z,81.88
2023-05-02T03:43:09.373Z,81.42
2023-05-02T03:45:35.880Z,81.77
2023-05-02T03:48:02.875Z,81.53
2023-05-02T03:50:30.365Z,81.51
2023-05-02T03:52:57.080Z,81.70
2023-05-02T03:55:32.998Z,81.72
2023-05-02T03:58:00.713Z,81.62
2023-05-02T04:00:27.371Z,80.48
2023-05-02T04:03:03.558Z,80.22
2023-05-02T04:05:31.688Z,79.93
2023-05-02T04:07:58.352Z,80.11
2023-05-02T04:10:25.035Z,81.00
2023-05-02T04:12:55.838Z,81.59
2023-05-02T04:15:22.464Z,82.17
2023-05-02T04:17:51.172Z,82.96
2023-05-02T04:20:20.231Z,82.53
2023-05-02T04:22:50.479Z,82.57
2023-05-02T04:25:17.374Z,83.19
2023-05-02T04:27:43.869Z,83.28
2023-05-02T04:30:14.462Z,82.89
2023-05-02T04:32:44.243Z,82.89
2023-05-02T04:35:11.936Z,82.66
2023-05-02T04:37:39.465Z,82.84
2023-05-02T04:40:06.720Z,83.31
2023-05-02T04:42:33.257Z,83.20
2023-05-02T04:45:19.008Z,83.00
2023-05-02T04:47:46.061Z,82.42
2023-05-02T04:50:12.603Z,82.44
2023-05-02T04:52:39.073Z,82.37
2023-05-02T04:55:06.211Z,82.16
2023-05-02T04:57:32.629Z,82.50
2023-05-02T05:00:00.639Z,82.33
2023-05-02T05:02:28.142Z,82.28
2023-05-02T05:04:56.717Z,82.43
2023-05-02T05:07:23.551Z,82.96
2023-05-02T05:09:53.395Z,82.46
2023-05-02T05:12:21.762Z,82.65
2023-05-02T05:14:48.249Z,82.21
2023-05-02T05:17:14.904Z,82.44
2023-05-02T05:19:42.459Z,81.92
2023-05-02T05:22:09.828Z,82.08
2023-05-02T05:24:37.155Z,81.83
2023-05-02T05:27:04.062Z,81.81
2023-05-02T05:29:32.876Z,81.55
2023-05-02T05:31:59.782Z,81.63
2023-05-02T05:34:27.502Z,81.66
2023-05-02T05:36:57.568Z,81.57
2023-05-02T05:39:25.215Z,81.73
2023-05-02T05:41:54.578Z,81.65
2023-05-02T05:44:22.175Z,81.86
2023-05-02T05:46:49.171Z,81.38
2023-05-02T05:49:16.732Z,81.85
2023-05-02T05:51:43.947Z,81.37
2023-05-02T05:54:10.463Z,80.91
2023-05-02T05:56:38.123Z,80.80
2023-05-02T05:59:13.916Z,80.77
2023-05-02T06:01:40.884Z,80.40
2023-05-02T06:04:08.517Z,79.81
2023-05-02T06:06:39.052Z,79.39
2023-05-02T06:09:05.619Z,79.18
2023-05-02T06:11:33.088Z,78.91
2023-05-02T06:13:59.575Z,78.59
2023-05-02T06:16:26.275Z,78.24
2023-05-02T06:18:53.187Z,77.86
2023-05-02T06:21:19.812Z,77.15
2023-05-02T06:23:46.612Z,77.42
2023-05-02T06:26:13.082Z,77.49
2023-05-02T06:28:39.524Z,77.58
2023-05-02T06:31:06.498Z,76.87
2023-05-02T06:33:34.222Z,76.86
2023-05-02T06:36:01.938Z,76.30
2023-05-02T06:38:28.874Z,75.88
2023-05-02T06:40:55.603Z,75.11
2023-05-02T06:43:22.174Z,75.35
2023-05-02T06:45:48.623Z,75.29
2023-05-02T06:48:15.332Z,74.38
2023-05-02T06:50:42.041Z,73.34
2023-05-02T06:53:08.523Z,74.72
2023-05-02T06:55:35.045Z,74.22
2023-05-02T06:58:01.506Z,72.81
2023-05-02T07:00:27.923Z,73.34
2023-05-02T07:02:54.397Z,73.11
2023-05-02T07:05:20.875Z,73.25
2023-05-02T07:07:47.298Z,73.44
2023-05-02T07:10:13.744Z,72.85
2023-05-02T07:12:40.199Z,72.77
2023-05-02T07:15:07.340Z,74.03
2023-05-02T07:17:34.104Z,72.93
2023-05-02T07:20:00.757Z,73.35
2023-05-02T07:22:27.426Z,72.50
2023-05-02T07:25:02.273Z,72.33
2023-05-02T07:27:28.903Z,71.47
2023-05-02T07:29:55.351Z,71.27
2023-05-02T07:32:22.415Z,70.86
2023-05-02T07:34:48.971Z,69.90
2023-05-02T07:37:15.437Z,69.89
2023-05-02T07:39:41.868Z,68.20
2023-05-02T07:42:08.325Z,69.01
2023-05-02T07:44:35.951Z,68.97
2023-05-02T07:47:02.758Z,68.02
2023-05-02T07:49:29.308Z,67.15
2023-05-02T07:51:56.183Z,68.05
2023-05-02T07:54:23.106Z,67.34
2023-05-02T07:56:49.512Z,67.54
2023-05-02T07:59:15.937Z,67.00
2023-05-02T08:01:42.801Z,67.50
2023-05-02T08:04:13.083Z,68.04
2023-05-02T08:06:39.794Z,68.48
2023-05-02T08:09:06.262Z,67.45
2023-05-02T08:11:32.684Z,66.92
2023-05-02T08:13:59.100Z,66.21
2023-05-02T08:16:25.760Z,64.86
2023-05-02T08:18:52.319Z,64.77
2023-05-02T08:21:18.809Z,62.53
2023-05-02T08:23:46.356Z,63.81
2023-05-02T08:26:12.882Z,62.83
2023-05-02T08:28:39.336Z,62.38
2023-05-02T08:31:05.806Z,61.85
2023-05-02T08:33:32.301Z,61.76
2023-05-02T08:35:58.793Z,61.51
2023-05-02T08:38:25.350Z,61.18
2023-05-02T08:40:51.775Z,60.45
2023-05-02T08:43:18.367Z,58.30
2023-05-02T08:45:45.354Z,58.40
2023-05-02T08:48:13.454Z,58.83
2023-05-02T08:50:42.462Z,57.20
2023-05-02T08:53:11.040Z,57.85
2023-05-02T08:55:39.978Z,57.48
2023-05-02T08:58:08.245Z,57.88
2023-05-02T09:00:42.689Z,57.07
2023-05-02T09:03:33.301Z,57.30
2023-05-02T09:06:07.357Z,58.46
2023-05-02T09:08:35.515Z,57.77
2023-05-02T09:11:03.899Z,55.49
2023-05-02T09:13:42.039Z,55.06
2023-05-02T09:16:22.980Z,54.60
2023-05-02T09:18:51.605Z,54.08
2023-05-02T09:21:21.127Z,53.98
2023-05-02T09:24:01.671Z,53.84
2023-05-02T09:26:32.157Z,53.97
2023-05-02T09:29:01.222Z,53.23
2023-05-02T09:31:54.921Z,53.37
2023-05-02T09:34:22.929Z,52.61
2023-05-02T09:36:51.993Z,51.37
2023-05-02T09:39:23.810Z,50.64
2023-05-02T09:41:52.348Z,52.70
2023-05-02T09:44:20.640Z,50.04
2023-05-02T09:46:49.248Z,51.44
2023-05-02T09:49:18.974Z,50.76
2023-05-02T09:51:49.767Z,51.02
2023-05-02T09:54:36.314Z,50.96
2023-05-02T09:57:03.718Z,51.39
2023-05-02T09:59:30.267Z,50.27
2023-05-02T10:01:58.408Z,51.86
2023-05-02T10:04:26.792Z,51.48
2023-05-02T10:06:54.472Z,52.11
2023-05-02T10:09:22.053Z,51.13
2023-05-02T10:11:53.972Z,51.45
2023-05-02T10:14:22.644Z,52.25
2023-05-02T10:16:55.438Z,50.29
2023-05-02T10:19:27.141Z,50.79
2023-05-02T10:21:54.885Z,50.55
2023-05-02T10:24:24.656Z,51.37
2023-05-02T10:26:52.113Z,51.79
2023-05-02T10:29:19.653Z,51.04
2023-05-02T10:31:48.024Z,49.65
2023-05-02T10:34:16.899Z,51.56
2023-05-02T10:36:43.338Z,50.04
2023-05-02T10:39:09.852Z,51.52
2023-05-02T10:41:38.840Z,49.98
2023-05-02T10:44:07.840Z,50.08
2023-05-02T10:46:35.334Z,48.57
2023-05-02T10:49:09.892Z,49.25
2023-05-02T10:51:41.394Z,49.77
2023-05-02T10:54:17.082Z,48.28
2023-05-02T10:57:03.355Z,48.91
2023-05-02T10:59:34.162Z,47.52
2023-05-02T11:02:01.715Z,47.37
2023-05-02T11:05:03.435Z,47.89
2023-05-02T11:07:31.999Z,48.45
2023-05-02T11:10:17.063Z,48.05
2023-05-02T11:12:51.258Z,47.50
2023-05-02T11:15:27.657Z,49.78
2023-05-02T11:18:03.846Z,49.74
2023-05-02T11:20:31.667Z,48.98
2023-05-02T11:23:22.093Z,49.07
2023-05-02T11:25:50.533Z,48.29
2023-05-02T11:28:44.504Z,47.86
2023-05-02T11:31:38.992Z,46.81
2023-05-02T11:34:05.507Z,47.85
2023-05-02T11:36:33.626Z,46.69
2023-05-02T11:39:01.706Z,48.21
2023-05-02T11:41:43.753Z,47.99
2023-05-02T11:44:10.451Z,49.36
2023-05-02T11:46:38.457Z,48.83
2023-05-02T11:49:06.965Z,48.17
2023-05-02T11:51:35.561Z,48.38
2023-05-02T11:54:02.501Z,48.54
2023-05-02T11:56:29.112Z,48.35
2023-05-02T11:58:59.869Z,47.03
2023-05-02T12:01:26.453Z,46.07
2023-05-02T12:04:02.715Z,47.14
2023-05-02T12:06:29.211Z,48.18
2023-05-02T12:09:08.080Z,49.90
2023-05-02T12:11:35.532Z,49.96
2023-05-02T12:14:02.131Z,50.07
2023-05-02T12:16:28.865Z,51.04
2023-05-02T12:18:58.086Z,50.76
2023-05-02T12:21:25.564Z,50.74
2023-05-02T12:23:53.034Z,49.36
2023-05-02T12:26:25.679Z,51.18
2023-05-02T12:28:54.455Z,48.83
2023-05-02T12:31:21.390Z,46.95
2023-05-02T12:33:52.364Z,46.77
2023-05-02T12:36:19.520Z,42.07
2023-05-02T12:38:55.020Z,40.12
2023-05-02T12:41:43.681Z,42.06
2023-05-02T12:44:10.142Z,42.82
2023-05-02T12:46:36.996Z,41.27
2023-05-02T12:49:10.707Z,42.85
2023-05-02T12:51:38.571Z,43.79
2023-05-02T12:54:05.309Z,43.99
2023-05-02T12:56:39.476Z,44.99
2023-05-02T12:59:06.243Z,47.37
2023-05-02T13:01:33.791Z,50.08
2023-05-02T13:04:00.431Z,54.45
2023-05-02T13:06:27.527Z,56.52
2023-05-02T13:08:54.056Z,58.17
2023-05-02T13:11:20.676Z,58.84
2023-05-02T13:13:47.130Z,59.81
2023-05-02T13:16:13.746Z,59.59
2023-05-02T13:18:40.359Z,60.47
2023-05-02T13:21:06.874Z,60.93
2023-05-02T13:23:33.389Z,62.11
2023-05-02T13:25:59.896Z,60.37
2023-05-02T13:28:26.786Z,60.60
2023-05-02T13:30:53.224Z,59.88
2023-05-02T13:33:19.703Z,60.34
2023-05-02T13:35:46.493Z,60.06
2023-05-02T13:38:12.989Z,58.78
2023-05-02T13:40:39.394Z,61.74
2023-05-02T13:43:05.868Z,60.32
2023-05-02T13:45:32.371Z,60.76
2023-05-02T13:47:58.904Z,56.70
2023-05-02T13:50:25.448Z,55.27
2023-05-02T13:52:51.971Z,55.55
2023-05-02T13:55:18.460Z,53.10
2023-05-02T13:57:44.948Z,55.00
2023-05-02T14:00:12.000Z,49.34
2023-05-02T14:02:39.042Z,49.53
2023-05-02T14:05:06.123Z,49.84
2023-05-02T14:07:32.583Z,49.13
2023-05-02T14:09:59.068Z,49.24
2023-05-02T14:12:25.749Z,48.11
2023-05-02T14:14:52.514Z,49.25
2023-05-02T14:17:19.024Z,51.79
2023-05-02T14:19:45.443Z,50.29
2023-05-02T14:22:11.878Z,48.89
2023-05-02T14:24:38.300Z,48.78
2023-05-02T14:27:06.778Z,46.20
2023-05-02T14:29:33.273Z,45.89
2023-05-02T14:31:59.750Z,46.22
2023-05-02T14:34:27.097Z,47.76
2023-05-02T14:36:53.623Z,46.45
2023-05-02T14:39:21.133Z,40.19
2023-05-02T14:41:47.553Z,36.07
2023-05-02T14:44:13.996Z,31.55
2023-05-02T14:46:40.627Z,29.50
2023-05-02T14:49:07.096Z,30.19
2023-05-02T14:51:33.617Z,28.91
2023-05-02T14:54:00.158Z,28.49
2023-05-02T14:56:26.727Z,27.25
2023-05-02T14:58:53.120Z,27.16
2023-05-02T15:01:22.320Z,28.45
2023-05-02T15:04:04.959Z,27.38
2023-05-02T15:06:33.019Z,27.38
2023-05-02T15:08:59.553Z,26.05
2023-05-02T15:11:26.022Z,26.77
2023-05-02T15:13:52.433Z,27.29
2023-05-02T15:16:18.987Z,29.33
2023-05-02T15:18:45.657Z,27.69
2023-05-02T15:21:12.459Z,27.05
2023-05-02T15:23:39.197Z,27.29
2023-05-02T15:26:06.419Z,28.58
2023-05-02T15:28:32.839Z,26.65
2023-05-02T15:30:59.345Z,23.76
2023-05-02T15:33:25.900Z,23.03
2023-05-02T15:35:55.075Z,23.42
2023-05-02T15:38:21.828Z,23.18
2023-05-02T15:40:59.726Z,22.53
2023-05-02T15:43:29.868Z,22.89
2023-05-02T15:45:58.323Z,24.24
2023-05-02T15:48:29.840Z,23.56
2023-05-02T15:50:56.991Z,22.54
2023-05-02T15:53:23.550Z,22.14
2023-05-02T15:55:52.073Z,21.98
2023-05-02T15:58:19.008Z,24.34
2023-05-02T16:00:46.899Z,25.44
2023-05-02T16:03:13.939Z,24.98
2023-05-02T16:05:40.403Z,29.55
2023-05-02T16:08:07.066Z,32.47
2023-05-02T16:10:36.206Z,34.09
2023-05-02T16:13:02.668Z,36.38
2023-05-02T16:15:30.268Z,36.30
2023-05-02T16:17:56.795Z,37.71
2023-05-02T16:20:23.245Z,38.29
2023-05-02T16:22:49.679Z,39.38
2023-05-02T16:25:17.073Z,41.00
2023-05-02T16:27:43.557Z,38.55
2023-05-02T16:30:10.513Z,38.49
2023-05-02T16:32:40.451Z,39.20
2023-05-02T16:35:10.630Z,39.81
2023-05-02T16:37:37.277Z,39.20
2023-05-02T16:40:05.624Z,39.44
2023-05-02T16:42:32.766Z,38.11
2023-05-02T16:44:59.455Z,35.28
2023-05-02T16:47:26.897Z,34.16
2023-05-02T16:49:54.759Z,33.95
2023-05-02T16:52:21.607Z,32.16
2023-05-02T16:54:48.298Z,31.65
2023-05-02T16:57:19.757Z,31.99
2023-05-02T16:59:48.445Z,31.88
2023-05-02T17:02:15.782Z,30.14
2023-05-02T17:04:42.838Z,30.25
2023-05-02T17:07:11.745Z,29.53
2023-05-02T17:09:39.500Z,28.58
2023-05-02T17:12:06.547Z,29.31
2023-05-02T17:14:33.433Z,32.80
2023-05-02T17:17:00.877Z,31.23
2023-05-02T17:19:27.494Z,32.04
2023-05-02T17:21:54.549Z,34.18
2023-05-02T17:24:21.313Z,35.36
2023-05-02T17:26:47.790Z,36.81
2023-05-02T17:29:14.263Z,36.28
2023-05-02T17:31:41.027Z,36.23
2023-05-02T17:34:07.576Z,38.16
2023-05-02T17:36:35.262Z,39.50
2023-05-02T17:39:02.248Z,41.27
2023-05-02T17:41:28.722Z,41.72
2023-05-02T17:43:55.122Z,41.67
2023-05-02T17:46:21.677Z,41.38
2023-05-02T17:48:48.909Z,39.95
2023-05-02T17:51:15.318Z,41.45
2023-05-02T17:53:42.521Z,41.09
2023-05-02T17:56:09.122Z,42.25
2023-05-02T17:58:37.273Z,42.69
2023-05-02T18:01:11.402Z,42.56
2023-05-02T18:03:38.755Z,41.34
2023-05-02T18:06:05.899Z,42.29
2023-05-02T18:08:32.651Z,42.87
2023-05-02T18:11:00.231Z,42.93
2023-05-02T18:13:26.950Z,43.61
2023-05-02T18:16:01.448Z,44.38
2023-05-02T18:18:27.978Z,45.28
2023-05-02T18:20:54.449Z,46.12
2023-05-02T18:23:20.881Z,46.27
2023-05-02T18:25:47.315Z,46.10
2023-05-02T18:28:13.732Z,47.98
2023-05-02T18:30:40.343Z,47.79
2023-05-02T18:33:08.046Z,48.31
2023-05-02T18:35:34.559Z,48.80
2023-05-02T18:38:01.533Z,49.63
2023-05-02T18:40:27.957Z,50.58
2023-05-02T18:42:54.394Z,51.40
2023-05-02T18:45:21.114Z,52.92
2023-05-02T18:47:47.601Z,53.40
2023-05-02T18:50:14.066Z,52.72
2023-05-02T18:52:40.494Z,53.32
2023-05-02T18:55:07.355Z,53.30
2023-05-02T18:57:33.986Z,52.91
2023-05-02T19:00:00.745Z,53.69
2023-05-02T19:02:27.559Z,54.94
2023-05-02T19:04:54.056Z,56.63
2023-05-02T19:07:20.642Z,57.22
2023-05-02T19:09:47.085Z,58.29
2023-05-02T19:12:13.531Z,58.61
2023-05-02T19:14:40.230Z,58.26
2023-05-02T19:17:06.825Z,58.28
2023-05-02T19:19:33.259Z,58.35
2023-05-02T19:21:59.715Z,59.39
2023-05-02T19:24:26.290Z,59.74
2023-05-02T19:26:53.171Z,60.11
2023-05-02T19:29:19.605Z,60.88
2023-05-02T19:31:46.298Z,61.56
2023-05-02T19:34:12.948Z,61.85
2023-05-02T19:36:39.464Z,61.80
2023-05-02T19:39:06.269Z,62.90
2023-05-02T19:41:32.827Z,62.43
2023-05-02T19:43:59.894Z,62.59
2023-05-02T19:46:26.826Z,62.54
2023-05-02T19:48:53.286Z,62.45
2023-05-02T19:51:25.176Z,62.56
2023-05-02T19:53:53.048Z,63.19
2023-05-02T19:56:25.271Z,63.15
2023-05-02T19:58:51.829Z,63.34
2023-05-02T20:01:18.403Z,63.30
2023-05-02T20:03:45.022Z,63.33
2023-05-02T20:06:11.617Z,62.76
2023-05-02T20:08:38.111Z,62.77
2023-05-02T20:11:05.154Z,63.08
2023-05-02T20:13:31.650Z,63.14
2023-05-02T20:15:58.054Z,63.06
2023-05-02T20:18:24.481Z,62.80
2023-05-02T20:20:50.866Z,63.53
2023-05-02T20:23:17.274Z,64.16
2023-05-02T20:25:43.926Z,64.18
2023-05-02T20:28:10.571Z,64.32
2023-05-02T20:30:38.999Z,64.27
2023-05-02T20:33:14.805Z,63.67
2023-05-02T20:35:42.558Z,63.87
2023-05-02T20:38:09.764Z,63.69
2023-05-02T20:40:40.499Z,64.36
2023-05-02T20:43:07.330Z,64.92
2023-05-02T20:45:33.759Z,65.14
2023-05-02T20:48:00.265Z,65.72
2023-05-02T20:50:27.096Z,65.77
2023-05-02T20:52:54.291Z,65.20
2023-05-02T20:55:22.663Z,65.70
2023-05-02T20:57:52.976Z,65.75
2023-05-02T21:00:22.365Z,66.23
2023-05-02T21:02:48.956Z,66.42
2023-05-02T21:05:15.654Z,65.85
2023-05-02T21:07:42.101Z,65.56
2023-05-02T21:10:09.336Z,65.39
2023-05-02T21:12:35.787Z,65.64
2023-05-02T21:15:02.345Z,65.62
2023-05-02T21:17:28.815Z,65.92
2023-05-02T21:19:56.089Z,65.99
2023-05-02T21:22:22.529Z,66.61
2023-05-02T21:24:50.113Z,65.88
2023-05-02T21:27:16.743Z,65.87
2023-05-02T21:29:43.269Z,65.59
2023-05-02T21:32:10.752Z,65.77
2023-05-02T21:34:37.327Z,66.27
2023-05-02T21:37:04.044Z,66.55
2023-05-02T21:39:30.533Z,66.47
2023-05-02T21:41:57.000Z,66.76
2023-05-02T21:44:23.420Z,66.79
2023-05-02T21:46:50.996Z,66.82
2023-05-02T21:49:17.518Z,67.16
2023-05-02T21:51:43.958Z,67.54
2023-05-02T21:54:10.402Z,67.50
2023-05-02T21:56:36.886Z,67.23
2023-05-02T21:59:03.457Z,67.77
2023-05-02T22:01:30.034Z,67.98
2023-05-02T22:03:57.956Z,67.54
2023-05-02T22:06:25.074Z,68.21
2023-05-02T22:08:51.858Z,67.50
2023-05-02T22:11:18.391Z,67.82
2023-05-02T22:13:44.816Z,67.94
2023-05-02T22:16:11.384Z,67.69
2023-05-02T22:18:37.819Z,68.77
2023-05-02T22:21:04.323Z,68.84
2023-05-02T22:23:30.981Z,68.25
2023-05-02T22:25:57.703Z,68.28
2023-05-02T22:28:24.376Z,68.06
2023-05-02T22:30:50.931Z,68.10
2023-05-02T22:33:17.398Z,67.93
2023-05-02T22:35:43.819Z,68.04
2023-05-02T22:38:14.802Z,68.13
2023-05-02T22:40:41.296Z,68.20
2023-05-02T22:43:08.208Z,68.38
2023-05-02T22:45:36.320Z,68.06
2023-05-02T22:48:03.027Z,68.28
2023-05-02T22:50:31.253Z,68.66
2023-05-02T22:52:59.673Z,68.58
2023-05-02T22:55:26.214Z,69.24
2023-05-02T22:57:52.764Z,68.93
2023-05-02T23:00:19.773Z,68.93
2023-05-02T23:02:46.317Z,69.59
2023-05-02T23:05:12.801Z,69.73
2023-05-02T23:07:39.216Z,69.78
2023-05-02T23:10:06.457Z,69.43
2023-05-02T23:12:32.864Z,70.18
2023-05-02T23:14:59.316Z,70.91
2023-05-02T23:17:25.777Z,71.24
2023-05-02T23:19:52.215Z,71.12
2023-05-02T23:22:18.613Z,71.17
2023-05-02T23:24:47.296Z,70.94
2023-05-02T23:27:13.697Z,70.85
2023-05-02T23:29:40.122Z,70.85
2023-05-02T23:32:07.974Z,70.41
2023-05-02T23:34:36.406Z,70.13
2023-05-02T23:37:03.176Z,70.16
2023-05-02T23:39:30.524Z,70.30
2023-05-02T23:41:57.068Z,70.31
2023-05-02T23:44:23.527Z,70.75
2023-05-02T23:46:50.402Z,70.32
2023-05-02T23:49:17.121Z,70.43
2023-05-02T23:51:43.555Z,70.19
2023-05-02T23:54:09.967Z,69.72
2023-05-02T23:56:36.394Z,69.87
2023-05-02T23:59:02.872Z,69.98
